createdAt,value
2018-08-24T00:00:14.676Z,20.44
2018-08-24T00:02:45.354Z,20.40
2018-08-24T00:05:16.001Z,20.36
2018-08-24T00:07:46.640Z,20.31
2018-08-24T00:10:17.309Z,20.28
2018-08-24T00:12:48.011Z,20.30
2018-08-24T00:15:18.660Z,20.34
2018-08-24T00:17:49.296Z,20.21
2018-08-24T00:20:19.988Z,20.11
2018-08-24T00:22:50.655Z,20.11
2018-08-24T00:25:21.332Z,20.07
2018-08-24T00:27:52.399Z,20.05
2018-08-24T00:30:23.116Z,20.13
2018-08-24T00:32:53.803Z,20.07
2018-08-24T00:35:24.427Z,20.12
2018-08-24T00:37:55.129Z,20.03
2018-08-24T00:40:25.739Z,19.81
2018-08-24T00:42:56.470Z,19.70
2018-08-24T00:45:27.113Z,19.64
2018-08-24T00:47:57.730Z,19.50
2018-08-24T00:50:28.360Z,19.42
2018-08-24T00:52:58.997Z,19.28
2018-08-24T00:55:29.676Z,19.21
2018-08-24T00:58:00.310Z,19.13
2018-08-24T01:00:45.377Z,19.07
2018-08-24T01:03:16.050Z,19.01
2018-08-24T01:05:46.719Z,18.82
2018-08-24T01:08:17.418Z,18.81
2018-08-24T01:10:48.078Z,18.70
2018-08-24T01:13:18.779Z,18.65
2018-08-24T01:15:55.321Z,18.54
2018-08-24T01:18:31.075Z,18.51
2018-08-24T01:21:01.769Z,18.52
2018-08-24T01:23:33.641Z,18.52
2018-08-24T01:26:04.413Z,18.48
2018-08-24T01:28:35.148Z,18.37
2018-08-24T01:31:09.594Z,18.40
2018-08-24T01:33:40.224Z,18.31
2018-08-24T01:36:10.853Z,18.31
2018-08-24T01:38:41.538Z,18.31
2018-08-24T01:41:12.281Z,18.17
2018-08-24T01:43:42.907Z,18.14
2018-08-24T01:46:15.044Z,18.11
2018-08-24T01:48:45.655Z,18.10
2018-08-24T01:51:16.309Z,18.10
2018-08-24T01:53:46.971Z,18.09
2018-08-24T01:56:17.603Z,18.07
2018-08-24T01:58:48.236Z,18.02
2018-08-24T02:01:18.970Z,18.02
2018-08-24T02:03:49.627Z,17.99
2018-08-24T02:06:20.319Z,18.09
2018-08-24T02:08:51.001Z,17.98
2018-08-24T02:11:26.803Z,18.00
2018-08-24T02:14:02.587Z,17.96
2018-08-24T02:16:34.430Z,17.90
2018-08-24T02:19:10.271Z,17.89
2018-08-24T02:21:46.156Z,17.92
2018-08-24T02:24:16.785Z,17.96
2018-08-24T02:26:47.812Z,17.93
2018-08-24T02:29:18.366Z,17.82
2018-08-24T02:31:51.844Z,17.81
2018-08-24T02:34:22.482Z,17.85
2018-08-24T02:36:53.265Z,17.86
2018-08-24T02:39:23.898Z,17.87
2018-08-24T02:41:54.619Z,17.89
2018-08-24T02:44:25.264Z,17.83
2018-08-24T02:46:55.905Z,17.73
2018-08-24T02:49:26.580Z,17.73
2018-08-24T02:51:57.260Z,17.76
2018-08-24T02:54:28.041Z,17.72
2018-08-24T02:56:58.687Z,17.70
2018-08-24T02:59:29.358Z,17.69
2018-08-24T03:01:59.981Z,17.65
2018-08-24T03:04:30.668Z,17.70
2018-08-24T03:07:01.343Z,17.58
2018-08-24T03:13:05.932Z,17.44
2018-08-24T03:15:36.623Z,17.33
2018-08-24T03:18:07.287Z,17.36
2018-08-24T03:20:37.932Z,17.28
2018-08-24T03:23:08.561Z,17.20
2018-08-24T03:25:39.207Z,17.23
2018-08-24T03:28:09.865Z,17.28
2018-08-24T03:30:40.519Z,17.31
2018-08-24T03:33:11.145Z,17.28
2018-08-24T03:35:41.855Z,17.22
2018-08-24T03:38:18.716Z,17.20
2018-08-24T03:40:49.354Z,17.16
2018-08-24T03:43:20.027Z,17.26
2018-08-24T03:45:50.796Z,17.14
2018-08-24T03:48:21.434Z,17.08
2018-08-24T03:50:52.074Z,17.07
2018-08-24T03:53:22.841Z,17.17
2018-08-24T03:55:53.340Z,17.15
2018-08-24T03:58:24.067Z,17.22
2018-08-24T04:00:58.250Z,17.11
2018-08-24T04:03:29.839Z,17.08
2018-08-24T04:06:00.476Z,17.14
2018-08-24T04:08:32.498Z,17.07
2018-08-24T04:11:03.198Z,17.13
2018-08-24T04:13:33.968Z,17.09
2018-08-24T04:16:04.661Z,17.08
2018-08-24T04:18:35.308Z,17.05
2018-08-24T04:21:06.035Z,17.08
2018-08-24T04:23:36.702Z,17.07
2018-08-24T04:26:07.548Z,17.17
2018-08-24T04:28:38.114Z,17.08
2018-08-24T04:31:08.801Z,17.03
2018-08-24T04:33:39.436Z,17.14
2018-08-24T04:36:10.076Z,17.14
2018-08-24T04:38:40.696Z,17.22
2018-08-24T04:41:11.381Z,17.21
2018-08-24T04:43:42.065Z,17.15
2018-08-24T04:46:12.679Z,17.20
2018-08-24T04:48:43.318Z,17.25
2018-08-24T04:51:13.997Z,17.34
2018-08-24T04:53:44.773Z,17.23
2018-08-24T04:56:15.449Z,17.18
2018-08-24T04:58:46.144Z,17.10
2018-08-24T05:01:16.752Z,17.17
2018-08-24T05:03:47.447Z,17.15
2018-08-24T05:06:18.278Z,17.25
2018-08-24T05:08:48.974Z,17.27
2018-08-24T05:11:19.708Z,17.25
2018-08-24T05:13:50.323Z,17.28
2018-08-24T05:16:21.028Z,17.38
2018-08-24T05:18:51.751Z,17.33
2018-08-24T05:21:22.573Z,17.22
2018-08-24T05:23:53.221Z,17.19
2018-08-24T05:26:23.894Z,17.17
2018-08-24T05:28:54.524Z,17.14
2018-08-24T05:31:25.215Z,17.11
2018-08-24T05:33:55.854Z,17.15
2018-08-24T05:36:26.587Z,17.21
2018-08-24T05:38:57.301Z,17.24
2018-08-24T05:41:28.046Z,17.05
2018-08-24T05:43:58.587Z,16.97
2018-08-24T05:46:29.324Z,16.94
2018-08-24T05:48:59.964Z,16.85
2018-08-24T05:51:30.670Z,16.78
2018-08-24T05:54:01.305Z,16.79
2018-08-24T05:56:32.010Z,16.71
2018-08-24T05:59:02.667Z,16.78
2018-08-24T06:01:33.428Z,16.77
2018-08-24T06:04:04.057Z,16.80
2018-08-24T06:06:34.776Z,16.80
2018-08-24T06:09:12.371Z,16.78
2018-08-24T06:11:43.475Z,16.74
2018-08-24T06:14:14.760Z,16.78
2018-08-24T06:16:50.362Z,16.78
2018-08-24T06:19:21.760Z,16.74
2018-08-24T06:21:52.463Z,16.77
2018-08-24T06:24:23.148Z,16.76
2018-08-24T06:26:53.765Z,16.83
2018-08-24T06:29:24.469Z,16.75
2018-08-24T06:31:55.154Z,16.84
2018-08-24T06:34:25.821Z,16.77
2018-08-24T06:36:56.539Z,16.86
2018-08-24T06:39:27.183Z,16.87
2018-08-24T06:41:57.917Z,16.89
2018-08-24T06:44:28.452Z,16.98
2018-08-24T06:46:59.149Z,16.98
2018-08-24T06:49:29.891Z,16.97
2018-08-24T06:52:00.562Z,17.04
2018-08-24T06:54:31.302Z,17.05
2018-08-24T06:57:02.028Z,17.09
2018-08-24T06:59:33.579Z,17.04
2018-08-24T07:02:04.345Z,17.23
2018-08-24T07:04:35.052Z,17.21
2018-08-24T07:07:05.775Z,17.21
2018-08-24T07:09:38.495Z,17.21
2018-08-24T07:12:11.799Z,17.30
2018-08-24T07:14:43.133Z,17.38
2018-08-24T07:17:13.879Z,17.33
2018-08-24T07:19:44.530Z,17.25
2018-08-24T07:22:15.140Z,17.29
2018-08-24T07:24:45.795Z,17.28
2018-08-24T07:27:17.013Z,17.36
2018-08-24T07:29:47.838Z,17.36
2018-08-24T07:32:18.505Z,17.44
2018-08-24T07:34:49.183Z,17.32
2018-08-24T07:37:19.892Z,17.26
2018-08-24T07:39:50.502Z,17.21
2018-08-24T07:42:21.119Z,17.26
2018-08-24T07:44:52.899Z,17.26
2018-08-24T07:47:24.398Z,17.33
2018-08-24T07:49:55.089Z,17.43
2018-08-24T07:52:25.759Z,17.50
2018-08-24T07:54:56.371Z,17.56
2018-08-24T07:57:27.075Z,17.73
2018-08-24T07:59:57.800Z,17.83
2018-08-24T08:02:33.684Z,17.97
2018-08-24T08:05:04.346Z,18.10
2018-08-24T08:07:35.014Z,18.26
2018-08-24T08:10:06.337Z,18.25
2018-08-24T08:12:37.112Z,18.40
2018-08-24T08:15:08.879Z,18.50
2018-08-24T08:17:40.726Z,18.50
2018-08-24T08:20:11.560Z,18.54
2018-08-24T08:22:42.303Z,18.51
2018-08-24T08:25:12.931Z,18.58
2018-08-24T08:27:43.604Z,18.61
2018-08-24T08:30:14.243Z,18.50
2018-08-24T08:32:44.987Z,18.43
2018-08-24T08:35:15.622Z,18.36
2018-08-24T08:37:46.267Z,18.25
2018-08-24T08:40:16.882Z,18.23
2018-08-24T08:42:47.583Z,18.29
2018-08-24T08:45:18.316Z,18.36
2018-08-24T08:47:49.014Z,18.38
2018-08-24T08:50:19.670Z,18.42
2018-08-24T08:52:50.419Z,18.54
2018-08-24T08:55:21.034Z,18.52
2018-08-24T08:57:51.705Z,18.53
2018-08-24T09:00:22.315Z,18.57
2018-08-24T09:02:52.993Z,18.53
2018-08-24T09:05:23.641Z,18.58
2018-08-24T09:07:54.339Z,18.65
2018-08-24T09:10:24.913Z,18.76
2018-08-24T09:12:55.551Z,18.80
2018-08-24T09:15:26.147Z,18.91
2018-08-24T09:18:01.832Z,19.01
2018-08-24T09:20:37.740Z,19.05
2018-08-24T09:23:13.590Z,19.07
2018-08-24T09:25:49.469Z,18.98
2018-08-24T09:28:25.326Z,18.87
2018-08-24T09:31:01.121Z,18.78
2018-08-24T09:33:31.813Z,18.79
2018-08-24T09:36:06.536Z,18.88
2018-08-24T09:38:37.285Z,18.91
2018-08-24T09:41:08.043Z,19.21
2018-08-24T09:43:43.970Z,19.75
2018-08-24T09:46:14.767Z,20.06
2018-08-24T09:48:50.558Z,20.22
2018-08-24T09:51:27.653Z,20.14
2018-08-24T09:54:05.835Z,20.04
2018-08-24T09:56:37.539Z,19.93
2018-08-24T09:59:08.196Z,19.82
2018-08-24T10:01:44.024Z,19.76
2018-08-24T10:04:19.888Z,19.62
2018-08-24T10:06:55.751Z,19.53
2018-08-24T10:09:26.389Z,19.40
2018-08-24T10:11:57.039Z,19.40
2018-08-24T10:14:27.683Z,19.76
2018-08-24T10:16:58.357Z,20.19
2018-08-24T10:19:29.033Z,20.84
2018-08-24T10:21:59.691Z,21.37
2018-08-24T10:24:30.419Z,21.69
2018-08-24T10:27:01.066Z,22.10
2018-08-24T10:29:31.733Z,22.51
2018-08-24T10:32:02.533Z,22.61
2018-08-24T10:34:33.264Z,22.98
2018-08-24T10:37:03.913Z,23.44
2018-08-24T10:39:34.587Z,23.68
2018-08-24T10:42:05.420Z,23.95
2018-08-24T10:44:36.075Z,24.47
2018-08-24T10:47:06.885Z,24.65
2018-08-24T10:49:37.503Z,24.60
2018-08-24T10:52:08.436Z,24.76
2018-08-24T10:54:39.317Z,24.89
2018-08-24T10:57:09.929Z,24.73
2018-08-24T10:59:40.539Z,24.32
2018-08-24T11:02:11.276Z,23.92
2018-08-24T11:04:41.886Z,23.70
2018-08-24T11:07:12.622Z,23.77
2018-08-24T11:09:43.950Z,24.18
2018-08-24T11:12:14.575Z,24.19
2018-08-24T11:14:45.249Z,23.88
2018-08-24T11:17:15.903Z,24.07
2018-08-24T11:19:46.612Z,23.80
2018-08-24T11:22:17.245Z,23.84
2018-08-24T11:24:47.869Z,23.50
2018-08-24T11:27:18.542Z,23.11
2018-08-24T11:29:49.141Z,23.49
2018-08-24T11:32:19.874Z,23.90
2018-08-24T11:34:50.577Z,24.11
2018-08-24T11:37:21.259Z,24.13
2018-08-24T11:39:52.151Z,24.39
2018-08-24T11:42:22.845Z,24.73
2018-08-24T11:44:53.460Z,25.13
2018-08-24T11:47:24.161Z,25.15
2018-08-24T11:49:54.773Z,25.48
2018-08-24T11:52:25.514Z,25.75
2018-08-24T11:55:26.774Z,25.44
2018-08-24T11:57:57.456Z,25.24
2018-08-24T12:00:35.168Z,25.45
2018-08-24T12:03:06.015Z,25.62
2018-08-24T12:05:36.665Z,25.30
2018-08-24T12:08:07.604Z,25.33
2018-08-24T12:10:38.196Z,24.86
2018-08-24T12:13:08.957Z,25.19
2018-08-24T12:15:39.608Z,25.63
2018-08-24T12:18:10.290Z,25.67
2018-08-24T12:20:41.267Z,25.71
2018-08-24T12:23:11.894Z,26.18
2018-08-24T12:25:42.619Z,25.08
2018-08-24T12:28:13.341Z,25.11
2018-08-24T12:30:44.052Z,25.27
2018-08-24T12:33:14.720Z,25.80
2018-08-24T12:35:45.446Z,26.36
2018-08-24T12:38:16.060Z,26.69
2018-08-24T12:40:46.728Z,26.60
2018-08-24T12:43:17.507Z,26.37
2018-08-24T12:45:48.223Z,26.14
2018-08-24T12:48:18.951Z,26.05
2018-08-24T12:50:49.638Z,25.88
2018-08-24T12:53:20.294Z,25.68
2018-08-24T12:55:50.989Z,25.94
2018-08-24T12:58:21.636Z,25.93
2018-08-24T13:00:52.313Z,25.27
2018-08-24T13:03:22.904Z,24.88
2018-08-24T13:05:53.623Z,24.81
2018-08-24T13:08:24.291Z,24.69
2018-08-24T13:10:54.984Z,24.55
2018-08-24T13:13:25.616Z,24.42
2018-08-24T13:15:56.274Z,24.30
2018-08-24T13:18:26.960Z,24.36
2018-08-24T13:20:57.650Z,24.19
2018-08-24T13:23:28.276Z,24.25
2018-08-24T13:25:58.925Z,23.84
2018-08-24T13:28:29.623Z,23.83
2018-08-24T13:31:00.881Z,24.15
2018-08-24T13:33:31.647Z,24.52
2018-08-24T13:36:02.258Z,24.31
2018-08-24T13:38:33.020Z,24.30
2018-08-24T13:41:03.716Z,24.25
2018-08-24T13:43:35.368Z,24.12
2018-08-24T13:46:06.021Z,24.00
2018-08-24T13:48:36.733Z,23.70
2018-08-24T13:51:07.393Z,23.79
2018-08-24T13:53:38.168Z,23.43
2018-08-24T13:56:08.864Z,23.30
2018-08-24T13:58:39.579Z,23.32
2018-08-24T14:01:11.206Z,23.18
2018-08-24T14:03:41.957Z,22.98
2018-08-24T14:06:12.597Z,22.80
2018-08-24T14:08:43.194Z,22.42
2018-08-24T14:11:13.851Z,22.28
2018-08-24T14:13:44.520Z,22.32
2018-08-24T14:16:15.244Z,22.28
2018-08-24T14:18:45.917Z,22.26
2018-08-24T14:21:16.632Z,22.12
2018-08-24T14:23:47.576Z,22.09
2018-08-24T14:26:18.249Z,22.01
2018-08-24T14:28:55.852Z,21.94
2018-08-24T14:31:26.841Z,21.94
2018-08-24T14:33:57.835Z,21.89
2018-08-24T14:36:28.758Z,22.07
2018-08-24T14:38:59.425Z,22.08
2018-08-24T14:41:30.159Z,21.99
2018-08-24T14:44:00.808Z,22.01
2018-08-24T14:46:31.537Z,21.88
2018-08-24T14:49:02.199Z,21.70
2018-08-24T14:51:32.939Z,21.69
2018-08-24T14:54:03.592Z,21.80
2018-08-24T14:56:34.246Z,21.83
2018-08-24T14:59:04.900Z,21.71
2018-08-24T15:01:35.505Z,21.65
2018-08-24T15:04:06.212Z,21.54
2018-08-24T15:06:36.877Z,21.27
2018-08-24T15:09:10.476Z,21.07
2018-08-24T15:11:41.156Z,21.07
2018-08-24T15:14:11.915Z,21.14
2018-08-24T15:16:43.195Z,21.14
2018-08-24T15:19:13.927Z,21.16
2018-08-24T15:21:44.548Z,21.17
2018-08-24T15:24:15.244Z,21.16
2018-08-24T15:26:46.018Z,21.09
2018-08-24T15:29:16.800Z,21.10
2018-08-24T15:31:47.508Z,21.06
2018-08-24T15:34:18.413Z,20.98
2018-08-24T15:36:49.052Z,20.95
2018-08-24T15:39:19.679Z,21.06
2018-08-24T15:41:50.365Z,21.03
2018-08-24T15:44:20.975Z,21.01
2018-08-24T15:46:51.657Z,20.88
2018-08-24T15:49:22.294Z,20.93
2018-08-24T15:51:52.930Z,20.83
2018-08-24T15:54:23.545Z,20.75
2018-08-24T15:56:56.341Z,20.69
2018-08-24T15:59:27.147Z,20.47
2018-08-24T16:01:58.227Z,20.31
2018-08-24T16:04:29.097Z,20.19
2018-08-24T16:07:00.228Z,20.09
2018-08-24T16:09:30.918Z,20.21
2018-08-24T16:12:01.759Z,20.06
2018-08-24T16:14:32.420Z,19.97
2018-08-24T16:17:03.118Z,19.90
2018-08-24T16:19:33.920Z,19.93
2018-08-24T16:22:04.604Z,19.92
2018-08-24T16:24:35.597Z,19.83
2018-08-24T16:27:08.193Z,19.78
2018-08-24T16:29:38.876Z,19.83
2018-08-24T16:32:09.835Z,19.87
2018-08-24T16:34:40.678Z,19.81
2018-08-24T16:37:11.390Z,19.75
2018-08-24T16:39:42.080Z,19.73
2018-08-24T16:42:12.725Z,19.78
2018-08-24T16:44:43.379Z,19.81
2018-08-24T16:47:14.091Z,19.88
2018-08-24T16:49:44.772Z,19.87
2018-08-24T16:52:15.418Z,19.89
2018-08-24T16:54:46.073Z,19.78
2018-08-24T16:57:16.675Z,19.74
2018-08-24T16:59:47.355Z,19.74
2018-08-24T17:02:18.118Z,19.76
2018-08-24T17:04:48.806Z,19.79
2018-08-24T17:07:19.425Z,19.70
2018-08-24T17:09:50.040Z,19.57
2018-08-24T17:12:20.696Z,19.56
2018-08-24T17:14:51.354Z,19.64
2018-08-24T17:17:22.036Z,19.58
2018-08-24T17:19:52.635Z,19.55
2018-08-24T17:22:23.272Z,19.62
2018-08-24T17:24:53.962Z,19.64
2018-08-24T17:27:24.667Z,19.58
2018-08-24T17:29:55.311Z,19.50
2018-08-24T17:32:25.953Z,19.55
2018-08-24T17:34:56.634Z,19.52
2018-08-24T17:37:27.244Z,19.42
2018-08-24T17:39:57.894Z,19.35
2018-08-24T17:42:28.504Z,19.37
2018-08-24T17:44:59.091Z,19.35
2018-08-24T17:47:29.798Z,19.32
2018-08-24T17:50:00.528Z,19.32
2018-08-24T17:52:31.194Z,19.35
2018-08-24T17:55:01.861Z,19.38
2018-08-24T17:57:32.535Z,19.27
2018-08-24T18:00:03.223Z,19.25
2018-08-24T18:02:34.031Z,19.26
2018-08-24T18:05:05.178Z,19.30
2018-08-24T18:07:35.907Z,19.29
2018-08-24T18:10:07.789Z,19.25
2018-08-24T18:12:38.456Z,19.23
2018-08-24T18:15:09.230Z,19.18
2018-08-24T18:17:39.791Z,19.17
2018-08-24T18:20:10.451Z,19.07
2018-08-24T18:22:41.070Z,18.98
2018-08-24T18:25:11.759Z,18.89
2018-08-24T18:27:42.400Z,18.88
2018-08-24T18:30:13.171Z,18.82
2018-08-24T18:32:43.749Z,18.81
2018-08-24T18:35:14.459Z,18.86
2018-08-24T18:37:45.374Z,18.83
2018-08-24T18:40:16.024Z,18.80
2018-08-24T18:42:46.699Z,18.77
2018-08-24T18:45:17.384Z,18.74
2018-08-24T18:47:48.302Z,18.70
2018-08-24T18:50:19.325Z,18.66
2018-08-24T18:52:50.204Z,18.65
2018-08-24T18:55:20.902Z,18.60
2018-08-24T18:57:51.731Z,18.57
2018-08-24T19:00:22.394Z,18.55
2018-08-24T19:02:53.132Z,18.56
2018-08-24T19:05:24.418Z,18.53
2018-08-24T19:08:01.639Z,18.51
2018-08-24T19:10:36.307Z,18.43
2018-08-24T19:13:07.092Z,18.39
2018-08-24T19:15:38.072Z,18.36
2018-08-24T19:18:14.100Z,18.32
2018-08-24T19:20:49.768Z,18.29
2018-08-24T19:23:20.487Z,18.31
2018-08-24T19:25:51.330Z,18.32
2018-08-24T19:28:27.342Z,18.36
2018-08-24T19:30:58.243Z,18.34
2018-08-24T19:33:29.167Z,18.33
2018-08-24T19:36:00.185Z,18.36
2018-08-24T19:38:31.279Z,18.33
2018-08-24T19:41:07.075Z,18.29
2018-08-24T19:43:37.788Z,18.22
2018-08-24T19:46:08.480Z,18.17
2018-08-24T19:48:44.441Z,18.12
2018-08-24T19:51:15.084Z,18.06
2018-08-24T19:53:45.770Z,17.99
2018-08-24T19:56:16.457Z,17.95
2018-08-24T19:58:52.464Z,17.91
2018-08-24T20:01:23.027Z,17.86
2018-08-24T20:03:53.664Z,17.82
2018-08-24T20:06:29.624Z,17.89
2018-08-24T20:09:05.465Z,17.95
2018-08-24T20:11:39.086Z,17.99
2018-08-24T20:14:09.847Z,17.91
2018-08-24T20:16:45.542Z,17.78
2018-08-24T20:19:16.252Z,17.74
2018-08-24T20:21:46.953Z,17.66
2018-08-24T20:24:17.844Z,17.63
2018-08-24T20:26:49.261Z,17.63
2018-08-24T20:29:20.732Z,17.62
2018-08-24T20:31:51.394Z,17.40
2018-08-24T20:34:22.169Z,17.40
2018-08-24T20:36:52.874Z,17.38
2018-08-24T20:39:23.485Z,17.33
2018-08-24T20:41:54.338Z,17.29
2018-08-24T20:44:25.009Z,17.30
2018-08-24T20:46:55.733Z,17.33
2018-08-24T20:49:26.407Z,17.38
2018-08-24T20:51:57.028Z,17.37
2018-08-24T20:54:27.774Z,17.31
2018-08-24T20:56:58.389Z,17.09
2018-08-24T20:59:29.066Z,17.00
2018-08-24T21:01:59.709Z,16.98
2018-08-24T21:04:30.400Z,16.91
2018-08-24T21:07:01.108Z,16.80
2018-08-24T21:09:31.763Z,16.77
2018-08-24T21:12:02.469Z,16.74
2018-08-24T21:14:33.191Z,16.75
2018-08-24T21:17:03.993Z,16.67
2018-08-24T21:19:34.751Z,16.64
2018-08-24T21:22:05.528Z,16.62
2018-08-24T21:24:36.167Z,16.55
2018-08-24T21:27:07.088Z,16.64
2018-08-24T21:29:37.796Z,16.48
2018-08-24T21:32:08.499Z,16.45
2018-08-24T21:34:39.178Z,16.51
2018-08-24T21:37:09.792Z,16.53
2018-08-24T21:39:40.491Z,16.39
2018-08-24T21:42:11.333Z,16.36
2018-08-24T21:44:41.937Z,16.37
2018-08-24T21:47:12.569Z,16.33
2018-08-24T21:49:43.192Z,16.35
2018-08-24T21:52:13.857Z,16.34
2018-08-24T21:54:44.504Z,16.30
2018-08-24T21:57:15.164Z,16.33
2018-08-24T21:59:45.825Z,16.29
2018-08-24T22:02:16.495Z,16.29
2018-08-24T22:04:47.516Z,16.28
2018-08-24T22:07:18.208Z,16.15
2018-08-24T22:09:49.121Z,16.14
2018-08-24T22:12:19.826Z,16.13
2018-08-24T22:14:50.566Z,16.10
2018-08-24T22:17:21.280Z,16.16
2018-08-24T22:19:51.889Z,16.05
2018-08-24T22:22:22.587Z,16.11
2018-08-24T22:24:53.236Z,16.09
2018-08-24T22:27:23.976Z,16.00
2018-08-24T22:29:54.640Z,15.90
2018-08-24T22:32:25.298Z,16.08
2018-08-24T22:34:55.940Z,16.09
2018-08-24T22:37:26.539Z,15.98
2018-08-24T22:39:57.160Z,15.94
2018-08-24T22:42:27.791Z,16.04
2018-08-24T22:44:58.437Z,16.11
2018-08-24T22:47:29.125Z,16.13
2018-08-24T22:49:59.745Z,15.96
2018-08-24T22:52:30.372Z,16.06
2018-08-24T22:55:00.965Z,16.13
2018-08-24T22:57:31.704Z,16.14
2018-08-24T23:00:02.393Z,16.21
2018-08-24T23:02:33.023Z,16.03
2018-08-24T23:05:03.656Z,16.08
2018-08-24T23:07:34.352Z,16.06
2018-08-24T23:10:05.050Z,16.04
2018-08-24T23:12:35.681Z,16.10
2018-08-24T23:15:06.629Z,16.15
2018-08-24T23:17:37.367Z,16.08
2018-08-24T23:20:08.004Z,15.97
2018-08-24T23:22:38.721Z,16.01
2018-08-24T23:25:09.419Z,16.02
2018-08-24T23:27:40.055Z,15.95
2018-08-24T23:30:10.960Z,15.94
2018-08-24T23:32:41.836Z,16.00
2018-08-24T23:35:12.519Z,15.99
2018-08-24T23:37:43.163Z,16.06
2018-08-24T23:40:13.789Z,16.16
2018-08-24T23:42:44.489Z,16.11
2018-08-24T23:45:15.121Z,16.11
2018-08-24T23:47:45.854Z,16.14
2018-08-24T23:50:16.473Z,16.24
2018-08-24T23:52:47.148Z,16.33
2018-08-24T23:55:17.815Z,16.23
2018-08-24T23:57:48.413Z,16.17
